createdAt,value
2023-04-03T00:03:32.146Z,1.125
2023-04-03T00:08:33.282Z,1.125
2023-04-03T00:13:34.286Z,1.125
2023-04-03T00:18:35.505Z,0.9375
2023-04-03T00:23:36.624Z,1
2023-04-03T00:28:37.656Z,1
2023-04-03T00:33:38.694Z,1
2023-04-03T00:38:39.781Z,0.9375
2023-04-03T00:43:40.706Z,0.8125
2023-04-03T00:48:41.801Z,0.8125
2023-04-03T00:53:43.003Z,0.8125
2023-04-03T00:58:43.802Z,0.6875
2023-04-03T01:03:44.757Z,0.625
2023-04-03T01:08:45.582Z,0.625
2023-04-03T01:13:46.713Z,0.75
2023-04-03T01:18:47.661Z,0.6875
2023-04-03T01:23:48.716Z,0.6875
2023-04-03T01:28:49.695Z,0.625
2023-04-03T01:33:50.772Z,0.6875
2023-04-03T01:38:52.193Z,0.625
2023-04-03T01:43:53.269Z,0.5625
2023-04-03T01:48:54.107Z,0.3125
2023-04-03T01:53:54.872Z,0.625
2023-04-03T01:58:55.745Z,0.4375
2023-04-03T02:03:56.731Z,0.5
2023-04-03T02:08:57.648Z,0.5
2023-04-03T02:13:58.512Z,0.4375
2023-04-03T02:18:59.479Z,0.25
2023-04-03T02:24:00.378Z,0.1875
2023-04-03T02:29:01.268Z,0.125
2023-04-03T02:34:02.199Z,0.1875
2023-04-03T02:39:04.106Z,0.125
2023-04-03T02:44:04.248Z,0
2023-04-03T02:49:05.180Z,0.0625
2023-04-03T02:54:06.237Z,0.0625
2023-04-03T02:59:07.333Z,-0.125
2023-04-03T03:04:08.426Z,-0.1875
2023-04-03T03:09:09.458Z,-0.3125
2023-04-03T03:14:10.496Z,-0.25
2023-04-03T03:19:11.508Z,-0.1875
2023-04-03T03:24:12.429Z,-0.25
2023-04-03T03:29:13.465Z,-0.25
2023-04-03T03:34:14.424Z,-0.3125
2023-04-03T03:39:15.380Z,-0.4375
2023-04-03T03:44:16.314Z,-0.5625
2023-04-03T03:49:17.104Z,-0.625
2023-04-03T03:54:17.993Z,-0.75
2023-04-03T03:59:19.102Z,-0.75
2023-04-03T04:04:20.112Z,-0.75
2023-04-03T04:09:21.177Z,-0.75
2023-04-03T04:14:21.992Z,-0.6875
2023-04-03T04:19:22.928Z,-0.6875
2023-04-03T04:24:23.781Z,-0.75
2023-04-03T04:29:24.778Z,-0.9375
2023-04-03T04:34:25.657Z,-0.6875
2023-04-03T04:39:26.609Z,-0.625
2023-04-03T04:44:27.606Z,-0.6875
2023-04-03T04:49:28.484Z,-0.625
2023-04-03T04:54:29.384Z,-0.5625
2023-04-03T04:59:30.332Z,-0.625
2023-04-03T05:04:31.364Z,-0.5625
2023-04-03T05:09:32.191Z,-0.5
2023-04-03T05:14:33.274Z,-0.5
2023-04-03T05:19:34.143Z,-0.3125
2023-04-03T05:24:35.046Z,-0.25
2023-04-03T05:29:36.107Z,-0.25
2023-04-03T05:34:37.473Z,-0.3125
2023-04-03T05:39:40.023Z,-0.0625
2023-04-03T05:44:42.622Z,0
2023-04-03T05:49:43.971Z,0.0625
2023-04-03T05:54:45.907Z,0.125
2023-04-03T05:59:47.702Z,0.5
2023-04-03T06:04:49.061Z,1.0625
2023-04-03T06:09:50.112Z,1.0625
2023-04-03T06:14:51.363Z,0.875
2023-04-03T06:19:52.702Z,1
2023-04-03T06:24:54.304Z,1.0625
2023-04-03T06:29:55.556Z,1.1875
2023-04-03T06:34:56.525Z,1.3125
2023-04-03T06:39:57.804Z,1.4375
2023-04-03T06:44:58.665Z,1.5625
2023-04-03T06:50:03.727Z,1.4375
2023-04-03T06:55:05.989Z,1.9375
2023-04-03T07:00:08.541Z,2.0625
2023-04-03T07:05:16.718Z,2.25
2023-04-03T07:15:31.388Z,4.9375
2023-04-03T07:20:33.173Z,5.75
2023-04-03T07:25:35.032Z,5.1875
2023-04-03T07:30:36.602Z,5.6875
2023-04-03T07:35:41.786Z,5.5
2023-04-03T07:40:44.884Z,5.1875
2023-04-03T07:45:47.393Z,5.6875
2023-04-03T07:50:51.371Z,6.8125
2023-04-03T07:55:52.598Z,6.8125
2023-04-03T08:00:55.641Z,7.25
2023-04-03T08:06:04.457Z,6.25
2023-04-03T08:11:06.689Z,5.875
2023-04-03T08:16:08.812Z,5.3125
2023-04-03T08:26:22.088Z,6.8125
2023-04-03T08:37:04.275Z,7.0625
2023-04-03T08:42:06.293Z,6.4375
2023-04-03T08:47:06.669Z,6.4375
2023-04-03T08:52:08.308Z,5.875
2023-04-03T08:57:09.830Z,5.5625
2023-04-03T09:02:10.767Z,5.625
2023-04-03T09:07:11.682Z,5.375
2023-04-03T09:12:13.383Z,5.4375
2023-04-03T09:17:14.139Z,5.6875
2023-04-03T09:22:15.427Z,5.6875
2023-04-03T09:27:17.206Z,5.4375
2023-04-03T09:32:18.140Z,5.9375
2023-04-03T09:37:25.016Z,6.4375
2023-04-03T09:42:20.922Z,6.125
2023-04-03T09:47:21.644Z,6.0625
2023-04-03T09:52:23.682Z,5.8125
2023-04-03T09:57:24.943Z,5.875
2023-04-03T10:02:25.695Z,6
2023-04-03T10:07:26.765Z,6.25
2023-04-03T10:12:27.867Z,6.4375
2023-04-03T10:17:28.573Z,6.875
2023-04-03T10:22:29.358Z,6.9375
2023-04-03T10:27:30.514Z,6.6875
2023-04-03T10:32:31.331Z,6.875
2023-04-03T10:37:32.133Z,7.0625
2023-04-03T10:42:34.067Z,7
2023-04-03T10:47:35.109Z,6.8125
2023-04-03T10:52:35.031Z,6.9375
2023-04-03T10:57:36.141Z,6.625
2023-04-03T11:02:37.079Z,6.5625
2023-04-03T11:07:37.833Z,7.3125
2023-04-03T11:12:38.720Z,7.5
2023-04-03T11:17:39.778Z,6.75
2023-04-03T11:22:40.755Z,7
2023-04-03T11:27:41.637Z,6.5625
2023-04-03T11:32:42.782Z,6.5
2023-04-03T11:37:43.750Z,6.625
2023-04-03T11:42:45.340Z,6.3125
2023-04-03T11:47:46.002Z,6.25
2023-04-03T11:52:46.786Z,6.0625
2023-04-03T11:57:47.644Z,6.125
2023-04-03T12:02:54.153Z,6.0625
2023-04-03T12:07:49.724Z,6.0625
2023-04-03T12:12:50.572Z,6
2023-04-03T12:17:51.569Z,6
2023-04-03T12:22:52.835Z,5.9375
2023-04-03T12:27:53.758Z,5.9375
2023-04-03T12:33:02.262Z,6.25
2023-04-03T12:37:56.331Z,6.5
2023-04-03T12:42:58.164Z,6.5625
2023-04-03T12:47:58.406Z,6.25
2023-04-03T12:52:59.555Z,6.5
2023-04-03T12:58:00.649Z,6.3125
2023-04-03T13:03:01.725Z,6.9375
2023-04-03T13:08:02.837Z,6.75
2023-04-03T13:13:04.150Z,6.4375
2023-04-03T13:18:05.391Z,6
2023-04-03T13:23:06.469Z,6.1875
2023-04-03T13:28:13.623Z,6
2023-04-03T13:33:08.455Z,6
2023-04-03T13:38:09.585Z,5.6875
2023-04-03T13:43:10.633Z,5.6875
2023-04-03T13:48:20.144Z,5.875
2023-04-03T13:53:12.890Z,5.9375
2023-04-03T13:58:13.849Z,5.875
2023-04-03T14:03:14.672Z,5.9375
2023-04-03T14:08:15.449Z,6.0625
2023-04-03T14:13:16.172Z,6.25
2023-04-03T14:18:16.913Z,5.875
2023-04-03T14:23:17.696Z,6.3125
2023-04-03T14:28:18.742Z,6.125
2023-04-03T14:33:19.510Z,6.25
2023-04-03T14:38:20.509Z,5.9375
2023-04-03T14:43:22.340Z,5.75
2023-04-03T14:48:22.420Z,5.9375
2023-04-03T14:53:29.016Z,6.25
2023-04-03T14:58:24.591Z,6.1875
2023-04-03T15:03:25.644Z,6.0625
2023-04-03T15:08:26.762Z,5.6875
2023-04-03T15:13:27.753Z,5.4375
2023-04-03T15:18:30.902Z,5.375
2023-04-03T15:23:29.702Z,5.3125
2023-04-03T15:28:30.565Z,5.25
2023-04-03T15:33:31.324Z,5.0625
2023-04-03T15:38:32.059Z,4.9375
2023-04-03T15:43:33.927Z,4.9375
2023-04-03T15:48:34.094Z,5
2023-04-03T15:53:35.127Z,4.9375
2023-04-03T15:58:36.101Z,4.9375
2023-04-03T16:03:36.837Z,4.9375
2023-04-03T16:08:37.620Z,4.875
2023-04-03T16:13:38.745Z,4.875
2023-04-03T16:18:39.434Z,4.5
2023-04-03T16:23:40.240Z,4.25
2023-04-03T16:28:41.101Z,4.125
2023-04-03T16:33:42.061Z,4.1875
2023-04-03T16:38:43.101Z,4.375
2023-04-03T16:43:44.014Z,4.5625
2023-04-03T16:48:44.722Z,4.5625
2023-04-03T16:53:45.660Z,4.5
2023-04-03T16:58:46.577Z,4.5
2023-04-03T17:03:47.536Z,4.375
2023-04-03T17:08:48.817Z,4.3125
2023-04-03T17:13:49.644Z,4.25
2023-04-03T17:18:50.656Z,4.25
2023-04-03T17:23:51.639Z,4.1875
2023-04-03T17:28:52.687Z,4.125
2023-04-03T17:33:53.559Z,4.0625
2023-04-03T17:38:54.426Z,4.125
2023-04-03T17:43:56.384Z,4.0625
2023-04-03T17:48:56.827Z,4.125
2023-04-03T17:53:57.829Z,4.125
2023-04-03T17:58:58.871Z,4.0625
2023-04-03T18:03:59.865Z,4.0625
2023-04-03T18:09:00.445Z,4
2023-04-03T18:14:02.341Z,4
2023-04-03T18:19:20.965Z,3.9375
2023-04-03T18:24:03.238Z,3.875
2023-04-03T18:29:04.185Z,3.875
2023-04-03T18:34:05.027Z,3.75
2023-04-03T18:39:05.988Z,3.75
2023-04-03T18:44:07.551Z,3.6875
2023-04-03T18:49:07.950Z,3.625
2023-04-03T18:54:08.936Z,3.5
2023-04-03T18:59:09.866Z,3.375
2023-04-03T19:04:10.928Z,3.375
2023-04-03T19:09:12.007Z,3.3125
2023-04-03T19:14:16.390Z,3.25
2023-04-03T19:19:13.758Z,3.3125
2023-04-03T19:24:14.814Z,3.3125
2023-04-03T19:29:15.705Z,3.3125
2023-04-03T19:34:16.635Z,3.3125
2023-04-03T19:39:17.505Z,3.3125
2023-04-03T19:44:18.735Z,3.1875
2023-04-03T19:49:19.670Z,3.1875
2023-04-03T19:54:20.630Z,3.125
2023-04-03T19:59:21.801Z,3.1875
2023-04-03T20:04:22.592Z,3.1875
2023-04-03T20:09:23.535Z,3.125
2023-04-03T20:14:24.482Z,3.125
2023-04-03T20:19:25.385Z,3.0625
2023-04-03T20:24:26.348Z,2.9375
2023-04-03T20:29:27.712Z,2.8125
2023-04-03T20:34:28.635Z,2.75
2023-04-03T20:39:29.564Z,2.625
2023-04-03T20:44:30.773Z,2.6875
2023-04-03T20:49:31.981Z,2.5625
2023-04-03T20:54:32.983Z,2.5
2023-04-03T20:59:34.029Z,2.625
2023-04-03T21:04:34.945Z,2.3125
2023-04-03T21:09:35.793Z,2.25
2023-04-03T21:14:36.916Z,2.25
2023-04-03T21:19:38.307Z,2.25
2023-04-03T21:24:38.784Z,2.25
2023-04-03T21:29:39.879Z,2.125
2023-04-03T21:34:40.737Z,2
2023-04-03T21:39:41.565Z,1.9375
2023-04-03T21:44:43.521Z,2
2023-04-03T21:49:43.629Z,1.875
2023-04-03T21:54:44.628Z,1.875
2023-04-03T21:59:45.652Z,1.6875
2023-04-03T22:04:46.637Z,1.625
2023-04-03T22:09:48.134Z,1.625
2023-04-03T22:14:49.620Z,1.625
2023-04-03T22:19:50.806Z,2.0625
2023-04-03T22:24:51.638Z,1.0625
2023-04-03T22:29:52.648Z,1.0625
2023-04-03T22:34:53.753Z,1.25
2023-04-03T22:39:54.512Z,1.125
2023-04-03T22:44:55.667Z,1.0625
2023-04-03T22:49:56.778Z,1.125
2023-04-03T22:55:01.315Z,1.25
2023-04-03T22:59:58.924Z,0.9375
2023-04-03T23:04:59.930Z,0.875
2023-04-03T23:10:00.922Z,0.875
2023-04-03T23:15:01.787Z,0.8125
2023-04-03T23:20:02.999Z,0.75
2023-04-03T23:25:03.991Z,0.625
2023-04-03T23:30:04.932Z,0.5
2023-04-03T23:35:05.945Z,0.375
2023-04-03T23:40:06.997Z,0.25
2023-04-03T23:45:08.822Z,-0.1875
2023-04-03T23:50:09.040Z,0.375
2023-04-03T23:55:09.879Z,0.3125
